Main page
METAR-TAF:

METAR-TAF

Airports :

Tuzla International Airport

Tuzla, Bosnia and Herzegovina

latitude: 44-33N, longitude: 018-42E, elevation: 306 m

Current weather observation

The report was made 29 minutes ago, at 22:00 UTC
Wind 3 kt from the East/Southeast
Temperature 1°C
Humidity 75%
Pressure 1027 hPa
Visibility 10 km or more
Scattered clouds at a height of 4500 ft

METAR: LQTZ 172200Z 12003KT 9999 SCT045 01/M03 Q1027

Time: 23:29 (22:29 UTC)

Forecast

The report was made 5 hours and 29 minutes ago, at 17:00 UTC
Forecast valid from 17 at 18 UTC to 18 at 18 UTC
Wind 5 kt from the East
Visibility 10 km or more
Broken clouds at a height of 3000 ft
Probability 40% :
Temporary
from 18 at 09 UTC to 18 at 18 UTC
Visibility: 3000 m
Broken clouds at a height of 800 ft
Overcast at a height of 2000 ft
light rain, snow

TAF: LQTZ 171700Z 1718/1818 08005KT 9999 BKN030 TX04/1812Z TNM01/1805Z PROB40 TEMPO 1809/1818 3000 -RASN BKN008 OVC020

Weather observations and forecasts of more than 4000 airports (METAR and TAF reports).

The available stations are represented by yellow and red dots on the map.

Hover mouse over dot to see the name of the station.

Then click to see weather observations and forecasts.

To change the map : click on the green buttons with a black cross to zoom in, on the green button with a dash to zoom out, or on the green arrows for adjacent maps.


METAR-TAF: